createdAt,value
2017-02-06T00:00:28.366Z,1006.47
2017-02-06T00:01:28.380Z,1006.51
2017-02-06T00:02:28.396Z,1006.54
2017-02-06T00:03:28.410Z,1006.6
2017-02-06T00:04:28.423Z,1006.56
2017-02-06T00:05:28.439Z,1006.63
2017-02-06T00:06:28.457Z,1006.62
2017-02-06T00:07:28.469Z,1006.58
2017-02-06T00:08:28.484Z,1006.62
2017-02-06T00:09:28.498Z,1006.6
2017-02-06T00:10:28.615Z,1006.58
2017-02-06T00:11:28.529Z,1006.62
2017-02-06T00:12:28.544Z,1006.63
2017-02-06T00:13:28.561Z,1006.59
2017-02-06T00:14:28.576Z,1006.64
2017-02-06T00:15:28.590Z,1006.71
2017-02-06T00:16:28.603Z,1006.63
2017-02-06T00:17:28.621Z,1006.71
2017-02-06T00:18:28.636Z,1006.74
2017-02-06T00:19:28.651Z,1006.76
2017-02-06T00:20:28.664Z,1006.72
2017-02-06T00:21:28.679Z,1006.75
2017-02-06T00:22:28.695Z,1006.74
2017-02-06T00:23:28.709Z,1006.75
2017-02-06T00:25:28.742Z,1006.73
2017-02-06T00:26:28.757Z,1006.73
2017-02-06T00:27:28.769Z,1006.72
2017-02-06T00:28:28.785Z,1006.71
2017-02-06T00:29:28.798Z,1006.72
2017-02-06T00:30:28.815Z,1006.75
2017-02-06T00:31:28.830Z,1006.76
2017-02-06T00:32:28.843Z,1006.79
2017-02-06T00:33:28.858Z,1006.8
2017-02-06T00:34:28.875Z,1006.78
2017-02-06T00:35:28.888Z,1006.81
2017-02-06T00:36:28.903Z,1006.8
2017-02-06T00:37:28.919Z,1006.8
2017-02-06T00:38:28.935Z,1006.84
2017-02-06T00:39:28.949Z,1006.86
2017-02-06T00:41:28.979Z,1006.84
2017-02-06T00:42:28.995Z,1006.82
2017-02-06T00:43:29.010Z,1006.86
2017-02-06T00:44:29.023Z,1006.91
2017-02-06T00:45:29.038Z,1006.86
2017-02-06T00:46:29.053Z,1006.93
2017-02-06T00:47:29.071Z,1006.97
2017-02-06T00:48:29.085Z,1006.95
2017-02-06T00:49:29.100Z,1006.98
2017-02-06T00:50:29.112Z,1007.02
2017-02-06T00:51:29.127Z,1006.97
2017-02-06T00:52:29.142Z,1007.04
2017-02-06T00:53:29.158Z,1007
2017-02-06T00:54:29.174Z,1007.05
2017-02-06T00:55:29.189Z,1007.02
2017-02-06T00:57:29.217Z,1006.98
2017-02-06T00:58:29.233Z,1007.07
2017-02-06T00:59:29.248Z,1007.05
2017-02-06T01:00:29.262Z,1007.06
2017-02-06T01:01:29.277Z,1007.11
2017-02-06T01:02:29.341Z,1007.09
2017-02-06T01:03:29.306Z,1007.09
2017-02-06T01:04:29.320Z,1007.11
2017-02-06T01:05:29.337Z,1007.12
2017-02-06T01:06:29.352Z,1007.11
2017-02-06T01:07:29.366Z,1007.12
2017-02-06T01:08:29.381Z,1007.18
2017-02-06T01:09:29.397Z,1007.16
2017-02-06T01:10:29.410Z,1007.17
2017-02-06T01:11:29.426Z,1007.21
2017-02-06T01:13:29.457Z,1007.21
2017-02-06T01:14:29.471Z,1007.2
2017-02-06T01:15:29.485Z,1007.21
2017-02-06T01:16:29.500Z,1007.24
2017-02-06T01:17:29.516Z,1007.29
2017-02-06T01:18:29.528Z,1007.27
2017-02-06T01:19:29.544Z,1007.31
2017-02-06T01:20:29.561Z,1007.29
2017-02-06T01:21:29.573Z,1007.28
2017-02-06T01:22:29.620Z,1007.33
2017-02-06T01:23:29.604Z,1007.32
2017-02-06T01:24:29.620Z,1007.37
2017-02-06T01:25:29.634Z,1007.37
2017-02-06T01:26:29.649Z,1007.39
2017-02-06T01:28:29.680Z,1007.36
2017-02-06T01:29:29.694Z,1007.37
2017-02-06T01:30:29.709Z,1007.4
2017-02-06T01:31:29.724Z,1007.39
2017-02-06T01:32:29.738Z,1007.37
2017-02-06T01:33:29.752Z,1007.39
2017-02-06T01:34:29.769Z,1007.39
2017-02-06T01:35:29.784Z,1007.38
2017-02-06T01:36:29.796Z,1007.45
2017-02-06T01:37:29.815Z,1007.48
2017-02-06T01:38:29.828Z,1007.48
2017-02-06T01:39:29.843Z,1007.53
2017-02-06T01:40:29.857Z,1007.57
2017-02-06T01:41:29.871Z,1007.56
2017-02-06T01:42:29.885Z,1007.54
2017-02-06T01:43:29.902Z,1007.53
2017-02-06T01:44:29.916Z,1007.53
2017-02-06T01:45:29.931Z,1007.53
2017-02-06T01:46:29.946Z,1007.58
2017-02-06T01:47:29.960Z,1007.56
2017-02-06T01:48:29.975Z,1007.6
2017-02-06T01:49:29.990Z,1007.61
2017-02-06T01:50:30.006Z,1007.68
2017-02-06T01:51:30.019Z,1007.69
2017-02-06T01:52:30.035Z,1007.72
2017-02-06T01:53:30.049Z,1007.69
2017-02-06T01:54:30.065Z,1007.68
2017-02-06T01:55:30.079Z,1007.69
2017-02-06T01:56:30.092Z,1007.8
2017-02-06T01:57:30.109Z,1007.78
2017-02-06T01:58:30.124Z,1007.71
2017-02-06T02:00:30.154Z,1007.75
2017-02-06T02:01:30.166Z,1007.77
2017-02-06T02:02:30.181Z,1007.78
2017-02-06T02:03:30.195Z,1007.78
2017-02-06T02:04:30.211Z,1007.76
2017-02-06T02:05:30.225Z,1007.74
2017-02-06T02:06:30.239Z,1007.79
2017-02-06T02:07:30.255Z,1007.83
2017-02-06T02:08:30.270Z,1007.8
2017-02-06T02:09:30.287Z,1007.84
2017-02-06T02:10:30.299Z,1007.79
2017-02-06T02:11:30.313Z,1007.81
2017-02-06T02:12:30.329Z,1007.87
2017-02-06T02:13:30.344Z,1007.84
2017-02-06T02:14:30.358Z,1007.94
2017-02-06T02:16:30.387Z,1007.94
2017-02-06T02:17:30.403Z,1008
2017-02-06T02:18:30.417Z,1008.02
2017-02-06T02:19:30.437Z,1007.95
2017-02-06T02:20:30.447Z,1007.93
2017-02-06T02:21:30.460Z,1007.93
2017-02-06T02:22:30.475Z,1007.98
2017-02-06T02:23:30.490Z,1008
2017-02-06T02:24:30.504Z,1008.03
2017-02-06T02:25:30.520Z,1007.94
2017-02-06T02:26:30.532Z,1007.99
2017-02-06T02:27:30.548Z,1008.02
2017-02-06T02:28:30.562Z,1007.92
2017-02-06T02:29:30.577Z,1007.98
2017-02-06T02:30:30.593Z,1007.97
2017-02-06T02:32:30.622Z,1008.03
2017-02-06T02:33:30.636Z,1008.08
2017-02-06T02:34:30.651Z,1008.04
2017-02-06T02:35:30.664Z,1008.05
2017-02-06T02:36:30.680Z,1007.98
2017-02-06T02:37:30.693Z,1008.06
2017-02-06T02:38:30.710Z,1008.09
2017-02-06T02:39:30.725Z,1008.11
2017-02-06T02:40:30.738Z,1008.09
2017-02-06T02:41:30.754Z,1008.11
2017-02-06T02:42:30.767Z,1008.13
2017-02-06T02:43:30.816Z,1008.13
2017-02-06T02:44:30.797Z,1008.12
2017-02-06T02:45:30.811Z,1008.19
2017-02-06T02:46:30.827Z,1008.23
2017-02-06T02:48:30.857Z,1008.24
2017-02-06T02:49:30.871Z,1008.31
2017-02-06T02:50:30.885Z,1008.32
2017-02-06T02:51:30.900Z,1008.34
2017-02-06T02:52:30.914Z,1008.35
2017-02-06T02:53:30.930Z,1008.43
2017-02-06T02:54:30.943Z,1008.41
2017-02-06T02:55:30.960Z,1008.44
2017-02-06T02:56:30.974Z,1008.44
2017-02-06T02:57:30.988Z,1008.47
2017-02-06T02:58:31.003Z,1008.47
2017-02-06T02:59:31.019Z,1008.44
2017-02-06T03:00:31.034Z,1008.46
2017-02-06T03:01:31.047Z,1008.48
2017-02-06T03:03:31.077Z,1008.54
2017-02-06T03:04:31.091Z,1008.53
2017-02-06T03:05:31.107Z,1008.53
2017-02-06T03:06:31.121Z,1008.56
2017-02-06T03:07:31.137Z,1008.62
2017-02-06T03:08:31.151Z,1008.64
2017-02-06T03:09:31.166Z,1008.67
2017-02-06T03:10:31.179Z,1008.76
2017-02-06T03:11:31.193Z,1008.74
2017-02-06T03:12:31.208Z,1008.73
2017-02-06T03:13:31.224Z,1008.77
2017-02-06T03:14:31.239Z,1008.74
2017-02-06T03:15:31.253Z,1008.83
2017-02-06T03:16:31.268Z,1008.88
2017-02-06T03:17:31.283Z,1008.89
2017-02-06T03:18:31.297Z,1008.92
2017-02-06T03:19:31.312Z,1008.95
2017-02-06T03:20:31.325Z,1008.94
2017-02-06T03:21:31.341Z,1009
2017-02-06T03:22:31.355Z,1009.07
2017-02-06T03:23:31.371Z,1009.08
2017-02-06T03:24:31.385Z,1009.07
2017-02-06T03:25:31.401Z,1009.12
2017-02-06T03:26:31.414Z,1009.15
2017-02-06T03:27:31.427Z,1009.15
2017-02-06T03:28:31.442Z,1009.15
2017-02-06T03:29:31.457Z,1009.18
2017-02-06T03:30:31.471Z,1009.18
2017-02-06T03:31:31.488Z,1009.19
2017-02-06T03:32:31.500Z,1009.24
2017-02-06T03:33:31.514Z,1009.28
2017-02-06T03:35:31.543Z,1009.3
2017-02-06T03:36:31.559Z,1009.35
2017-02-06T03:37:31.575Z,1009.37
2017-02-06T03:38:31.590Z,1009.34
2017-02-06T03:39:31.604Z,1009.4
2017-02-06T03:40:31.618Z,1009.4
2017-02-06T03:41:31.632Z,1009.45
2017-02-06T03:42:31.646Z,1009.42
2017-02-06T03:43:31.663Z,1009.44
2017-02-06T03:44:31.677Z,1009.41
2017-02-06T03:45:31.691Z,1009.48
2017-02-06T03:46:31.706Z,1009.43
2017-02-06T03:47:31.720Z,1009.43
2017-02-06T03:48:31.736Z,1009.46
2017-02-06T03:49:31.750Z,1009.42
2017-02-06T03:51:31.779Z,1009.46
2017-02-06T03:52:31.793Z,1009.44
2017-02-06T03:53:31.807Z,1009.45
2017-02-06T03:54:31.824Z,1009.51
2017-02-06T03:55:31.838Z,1009.49
2017-02-06T03:56:31.856Z,1009.53
2017-02-06T03:57:31.868Z,1009.6
2017-02-06T03:58:31.882Z,1009.6
2017-02-06T03:59:31.895Z,1009.59
2017-02-06T04:00:31.911Z,1009.6
2017-02-06T04:01:31.925Z,1009.63
2017-02-06T04:02:31.940Z,1009.66
2017-02-06T04:03:31.955Z,1009.7
2017-02-06T04:04:32.004Z,1009.66
2017-02-06T04:05:32.021Z,1009.63
2017-02-06T04:07:32.014Z,1009.68
2017-02-06T04:08:32.027Z,1009.65
2017-02-06T04:09:32.043Z,1009.69
2017-02-06T04:10:32.057Z,1009.78
2017-02-06T04:11:32.072Z,1009.79
2017-02-06T04:12:32.088Z,1009.77
2017-02-06T04:13:32.100Z,1009.8
2017-02-06T04:14:32.114Z,1009.85
2017-02-06T04:15:32.130Z,1009.86
2017-02-06T04:16:32.143Z,1009.89
2017-02-06T04:17:32.158Z,1009.96
2017-02-06T04:18:32.174Z,1010.01
2017-02-06T04:19:32.188Z,1010.04
2017-02-06T04:20:32.204Z,1010.05
2017-02-06T04:21:32.217Z,1010.01
2017-02-06T04:23:32.247Z,1010.01
2017-02-06T04:24:32.262Z,1010.02
2017-02-06T04:25:32.276Z,1010.01
2017-02-06T04:26:32.289Z,1010.01
2017-02-06T04:27:32.304Z,1010.04
2017-02-06T04:28:32.320Z,1010.04
2017-02-06T04:29:32.333Z,1010.09
2017-02-06T04:30:32.348Z,1010.13
2017-02-06T04:31:32.362Z,1010.14
2017-02-06T04:32:32.376Z,1010.14
2017-02-06T04:33:32.391Z,1010.17
2017-02-06T04:34:32.406Z,1010.2
2017-02-06T04:35:32.421Z,1010.22
2017-02-06T04:36:32.436Z,1010.25
2017-02-06T04:38:32.465Z,1010.26
2017-02-06T04:39:32.514Z,1010.24
2017-02-06T04:40:32.494Z,1010.32
2017-02-06T04:41:32.508Z,1010.35
2017-02-06T04:42:32.523Z,1010.35
2017-02-06T04:43:32.538Z,1010.37
2017-02-06T04:44:32.551Z,1010.33
2017-02-06T04:45:32.566Z,1010.43
2017-02-06T04:46:32.581Z,1010.41
2017-02-06T04:47:32.596Z,1010.42
2017-02-06T04:48:32.610Z,1010.45
2017-02-06T04:49:32.627Z,1010.45
2017-02-06T04:50:32.639Z,1010.49
2017-02-06T04:51:32.653Z,1010.5
2017-02-06T04:52:32.668Z,1010.54
2017-02-06T04:53:32.683Z,1010.56
2017-02-06T04:54:32.698Z,1010.54
2017-02-06T04:55:32.711Z,1010.61
2017-02-06T04:56:32.726Z,1010.58
2017-02-06T04:57:32.741Z,1010.59
2017-02-06T04:58:32.755Z,1010.6
2017-02-06T04:59:32.772Z,1010.61
2017-02-06T05:00:32.785Z,1010.67
2017-02-06T05:01:32.800Z,1010.69
2017-02-06T05:02:32.814Z,1010.72
2017-02-06T05:03:32.828Z,1010.75
2017-02-06T05:04:32.843Z,1010.76
2017-02-06T05:05:32.858Z,1010.75
2017-02-06T05:06:32.873Z,1010.72
2017-02-06T05:07:32.891Z,1010.75
2017-02-06T05:08:32.901Z,1010.75
2017-02-06T05:10:32.932Z,1010.71
2017-02-06T05:11:32.947Z,1010.73
2017-02-06T05:12:32.960Z,1010.7
2017-02-06T05:13:32.976Z,1010.76
2017-02-06T05:14:32.989Z,1010.74
2017-02-06T05:15:33.004Z,1010.83
2017-02-06T05:16:33.018Z,1010.83
2017-02-06T05:17:33.034Z,1010.81
2017-02-06T05:18:33.050Z,1010.86
2017-02-06T05:19:33.064Z,1010.86
2017-02-06T05:20:33.080Z,1010.82
2017-02-06T05:21:33.095Z,1010.86
2017-02-06T05:22:33.107Z,1010.84
2017-02-06T05:23:33.122Z,1010.84
2017-02-06T05:24:33.137Z,1010.85
2017-02-06T05:26:33.167Z,1010.84
2017-02-06T05:27:33.182Z,1010.96
2017-02-06T05:28:33.196Z,1010.91
2017-02-06T05:29:33.211Z,1010.92
2017-02-06T05:30:33.224Z,1010.94
2017-02-06T05:31:33.239Z,1010.95
2017-02-06T05:32:33.252Z,1010.98
2017-02-06T05:33:33.269Z,1010.97
2017-02-06T05:34:33.283Z,1010.98
2017-02-06T05:35:33.298Z,1010.95
2017-02-06T05:36:33.311Z,1010.97
2017-02-06T05:37:33.329Z,1010.99
2017-02-06T05:38:33.341Z,1011
2017-02-06T05:39:33.357Z,1011.02
2017-02-06T05:40:33.376Z,1011.04
2017-02-06T05:42:33.397Z,1011.05
2017-02-06T05:43:33.413Z,1011.08
2017-02-06T05:44:33.428Z,1011.09
2017-02-06T05:45:33.441Z,1011.09
2017-02-06T05:46:33.457Z,1011.12
2017-02-06T05:47:33.472Z,1011.11
2017-02-06T05:48:33.486Z,1011.07
2017-02-06T05:49:33.499Z,1011.09
2017-02-06T05:50:33.516Z,1011.07
2017-02-06T05:51:33.530Z,1011.12
2017-02-06T05:52:33.544Z,1011.1
2017-02-06T05:53:33.559Z,1011.16
2017-02-06T05:54:33.575Z,1011.17
2017-02-06T05:55:33.590Z,1011.2
2017-02-06T05:56:33.601Z,1011.17
2017-02-06T05:58:33.632Z,1011.21
2017-02-06T05:59:33.646Z,1011.17
2017-02-06T06:00:33.659Z,1011.22
2017-02-06T06:01:33.675Z,1011.19
2017-02-06T06:02:33.690Z,1011.22
2017-02-06T06:03:33.704Z,1011.24
2017-02-06T06:04:33.719Z,1011.22
2017-02-06T06:05:33.733Z,1011.22
2017-02-06T06:06:33.748Z,1011.25
2017-02-06T06:07:33.762Z,1011.24
2017-02-06T06:08:33.776Z,1011.27
2017-02-06T06:09:33.791Z,1011.27
2017-02-06T06:10:33.808Z,1011.31
2017-02-06T06:11:33.819Z,1011.31
2017-02-06T06:13:33.849Z,1011.39
2017-02-06T06:14:33.866Z,1011.4
2017-02-06T06:15:33.879Z,1011.37
2017-02-06T06:16:33.893Z,1011.39
2017-02-06T06:17:33.908Z,1011.39
2017-02-06T06:18:33.920Z,1011.47
2017-02-06T06:19:33.935Z,1011.45
2017-02-06T06:20:33.950Z,1011.41
2017-02-06T06:21:33.963Z,1011.38
2017-02-06T06:22:33.979Z,1011.4
2017-02-06T06:23:33.994Z,1011.41
2017-02-06T06:24:34.010Z,1011.51
2017-02-06T06:25:34.024Z,1011.5
2017-02-06T06:26:34.036Z,1011.52
2017-02-06T06:27:34.052Z,1011.52
2017-02-06T06:28:34.065Z,1011.55
2017-02-06T06:29:34.079Z,1011.48
2017-02-06T06:30:34.098Z,1011.47
2017-02-06T06:31:34.108Z,1011.54
2017-02-06T06:32:34.121Z,1011.56
2017-02-06T06:33:34.138Z,1011.58
2017-02-06T06:34:34.150Z,1011.59
2017-02-06T06:35:34.165Z,1011.56
2017-02-06T06:36:34.179Z,1011.64
2017-02-06T06:37:34.193Z,1011.62
2017-02-06T06:38:34.211Z,1011.65
2017-02-06T06:39:34.223Z,1011.7
2017-02-06T06:40:34.236Z,1011.69
2017-02-06T06:41:34.250Z,1011.73
2017-02-06T06:42:34.265Z,1011.73
2017-02-06T06:43:34.281Z,1011.74
2017-02-06T06:45:34.309Z,1011.69
2017-02-06T06:46:34.323Z,1011.74
2017-02-06T06:47:34.338Z,1011.71
2017-02-06T06:48:34.352Z,1011.72
2017-02-06T06:49:34.365Z,1011.75
2017-02-06T06:50:34.381Z,1011.75
2017-02-06T06:51:34.395Z,1011.75
2017-02-06T06:52:34.408Z,1011.78
2017-02-06T06:53:34.424Z,1011.79
2017-02-06T06:54:34.436Z,1011.79
2017-02-06T06:55:34.452Z,1011.81
2017-02-06T06:56:34.465Z,1011.81
2017-02-06T06:57:34.482Z,1011.82
2017-02-06T06:58:34.493Z,1011.89
2017-02-06T06:59:34.509Z,1011.88
2017-02-06T07:01:34.538Z,1011.96
2017-02-06T07:02:34.552Z,1011.92
2017-02-06T07:03:34.565Z,1012.02
2017-02-06T07:04:34.580Z,1012.04
2017-02-06T07:05:34.596Z,1012.06
2017-02-06T07:06:34.607Z,1012.05
2017-02-06T07:07:34.622Z,1012.08
2017-02-06T07:08:34.638Z,1012.05
2017-02-06T07:09:34.652Z,1012.11
2017-02-06T07:10:34.666Z,1012.11
2017-02-06T07:11:34.682Z,1012.15
2017-02-06T07:12:34.695Z,1012.18
2017-02-06T07:13:34.708Z,1012.18
2017-02-06T07:14:34.727Z,1012.22
2017-02-06T07:15:34.738Z,1012.2
2017-02-06T07:17:34.765Z,1012.22
2017-02-06T07:18:34.780Z,1012.24
2017-02-06T07:19:34.795Z,1012.32
2017-02-06T07:20:34.810Z,1012.33
2017-02-06T07:21:34.824Z,1012.35
2017-02-06T07:22:34.838Z,1012.38
2017-02-06T07:23:34.851Z,1012.44
2017-02-06T07:24:34.866Z,1012.41
2017-02-06T07:25:34.877Z,1012.45
2017-02-06T07:26:34.894Z,1012.44
2017-02-06T07:27:34.907Z,1012.5
2017-02-06T07:28:34.922Z,1012.55
2017-02-06T07:29:34.936Z,1012.49
2017-02-06T07:30:34.950Z,1012.47
2017-02-06T07:31:34.967Z,1012.49
2017-02-06T07:33:34.993Z,1012.54
2017-02-06T07:34:35.006Z,1012.62
2017-02-06T07:35:35.021Z,1012.62
2017-02-06T07:36:35.035Z,1012.62
2017-02-06T07:37:35.051Z,1012.62
2017-02-06T07:38:35.065Z,1012.7
2017-02-06T07:39:35.079Z,1012.7
2017-02-06T07:40:35.092Z,1012.73
2017-02-06T07:41:35.106Z,1012.72
2017-02-06T07:42:35.122Z,1012.75
2017-02-06T07:43:35.134Z,1012.76
2017-02-06T07:44:35.149Z,1012.8
2017-02-06T07:45:35.164Z,1012.78
2017-02-06T07:46:35.180Z,1012.83
2017-02-06T07:48:35.208Z,1012.95
2017-02-06T07:49:35.222Z,1012.98
2017-02-06T07:50:35.237Z,1013.02
2017-02-06T07:51:35.250Z,1013.07
2017-02-06T07:52:35.265Z,1013.01
2017-02-06T07:53:35.279Z,1013.03
2017-02-06T07:54:35.293Z,1013.05
2017-02-06T07:55:35.308Z,1013.01
2017-02-06T07:56:35.321Z,1013.02
2017-02-06T07:57:35.334Z,1013.11
2017-02-06T07:58:35.350Z,1013.06
2017-02-06T07:59:35.365Z,1013.12
2017-02-06T08:00:35.379Z,1013.15
2017-02-06T08:01:35.393Z,1013.18
2017-02-06T08:02:35.405Z,1013.16
2017-02-06T08:03:35.422Z,1013.19
2017-02-06T08:04:35.433Z,1013.19
2017-02-06T08:05:35.448Z,1013.18
2017-02-06T08:06:35.463Z,1013.19
2017-02-06T08:07:35.478Z,1013.2
2017-02-06T08:08:35.491Z,1013.23
2017-02-06T08:09:35.506Z,1013.22
2017-02-06T08:10:35.521Z,1013.27
2017-02-06T08:11:35.534Z,1013.26
2017-02-06T08:12:35.548Z,1013.32
2017-02-06T08:13:35.563Z,1013.36
2017-02-06T08:14:35.578Z,1013.36
2017-02-06T08:15:35.591Z,1013.38
2017-02-06T08:16:35.605Z,1013.38
2017-02-06T08:17:35.618Z,1013.38
2017-02-06T08:18:35.632Z,1013.38
2017-02-06T08:20:35.661Z,1013.47
2017-02-06T08:21:35.673Z,1013.51
2017-02-06T08:22:35.691Z,1013.43
2017-02-06T08:23:35.704Z,1013.46
2017-02-06T08:24:35.768Z,1013.52
2017-02-06T08:25:35.730Z,1013.5
2017-02-06T08:26:35.745Z,1013.46
2017-02-06T08:27:35.759Z,1013.48
2017-02-06T08:28:35.773Z,1013.59
2017-02-06T08:29:35.787Z,1013.53
2017-02-06T08:30:35.799Z,1013.53
2017-02-06T08:31:35.814Z,1013.59
2017-02-06T08:32:35.830Z,1013.58
2017-02-06T08:33:35.841Z,1013.59
2017-02-06T08:34:35.854Z,1013.61
2017-02-06T08:36:35.884Z,1013.65
2017-02-06T08:37:35.897Z,1013.63
2017-02-06T08:38:35.912Z,1013.69
2017-02-06T08:39:35.925Z,1013.72
2017-02-06T08:40:35.939Z,1013.72
2017-02-06T08:41:35.952Z,1013.8
2017-02-06T08:42:35.968Z,1013.82
2017-02-06T08:43:35.982Z,1013.85
2017-02-06T08:44:35.993Z,1013.87
2017-02-06T08:45:36.007Z,1013.88
2017-02-06T08:46:36.022Z,1013.94
2017-02-06T08:47:36.034Z,1013.94
2017-02-06T08:48:36.048Z,1013.9
2017-02-06T08:49:36.063Z,1013.92
2017-02-06T08:50:36.075Z,1013.95
2017-02-06T08:52:36.102Z,1014
2017-02-06T08:53:36.117Z,1013.99
2017-02-06T08:54:36.131Z,1014.14
2017-02-06T08:55:36.144Z,1014.05
2017-02-06T08:56:36.159Z,1014.11
2017-02-06T08:57:36.173Z,1014.21
2017-02-06T08:58:36.186Z,1014.17
2017-02-06T08:59:36.198Z,1014.26
2017-02-06T09:00:36.214Z,1014.2
2017-02-06T09:01:36.228Z,1014.18
2017-02-06T09:02:36.239Z,1014.18
2017-02-06T09:03:36.253Z,1014.19
2017-02-06T09:04:36.268Z,1014.25
2017-02-06T09:05:36.281Z,1014.23
2017-02-06T09:06:36.295Z,1014.26
2017-02-06T09:08:36.323Z,1014.31
2017-02-06T09:09:36.334Z,1014.28
2017-02-06T09:10:36.349Z,1014.35
2017-02-06T09:11:36.364Z,1014.3
2017-02-06T09:12:36.377Z,1014.34
2017-02-06T09:13:36.391Z,1014.35
2017-02-06T09:14:36.405Z,1014.37
2017-02-06T09:15:36.418Z,1014.44
2017-02-06T09:16:36.432Z,1014.43
2017-02-06T09:17:36.445Z,1014.43
2017-02-06T09:18:36.459Z,1014.42
2017-02-06T09:19:36.472Z,1014.38
2017-02-06T09:20:36.486Z,1014.45
2017-02-06T09:21:36.502Z,1014.45
2017-02-06T09:23:36.529Z,1014.47
2017-02-06T09:24:36.541Z,1014.56
2017-02-06T09:25:36.555Z,1014.56
2017-02-06T09:26:36.572Z,1014.54
2017-02-06T09:27:36.586Z,1014.58
2017-02-06T09:28:36.597Z,1014.63
2017-02-06T09:29:36.610Z,1014.55
2017-02-06T09:30:36.625Z,1014.68
2017-02-06T09:31:36.639Z,1014.59
2017-02-06T09:32:36.652Z,1014.63
2017-02-06T09:33:36.667Z,1014.64
2017-02-06T09:34:36.679Z,1014.62
2017-02-06T09:35:36.694Z,1014.65
2017-02-06T09:36:36.708Z,1014.67
2017-02-06T09:37:36.720Z,1014.72
2017-02-06T09:38:36.733Z,1014.72
2017-02-06T09:39:36.750Z,1014.77
2017-02-06T09:40:36.762Z,1014.85
2017-02-06T09:41:36.776Z,1014.85
2017-02-06T09:42:36.788Z,1014.85
2017-02-06T09:43:36.801Z,1014.9
2017-02-06T09:44:36.815Z,1014.86
2017-02-06T09:45:36.829Z,1014.86
2017-02-06T09:46:36.843Z,1014.84
2017-02-06T09:47:36.856Z,1014.87
2017-02-06T09:48:36.871Z,1014.92
2017-02-06T09:49:36.885Z,1014.94
2017-02-06T09:50:36.897Z,1014.92
2017-02-06T09:51:36.911Z,1014.93
2017-02-06T09:52:36.924Z,1014.95
2017-02-06T09:53:36.935Z,1014.92
2017-02-06T09:55:36.966Z,1014.9
2017-02-06T09:56:36.981Z,1014.93
2017-02-06T09:57:36.991Z,1014.91
2017-02-06T09:58:37.006Z,1014.93
2017-02-06T09:59:37.020Z,1014.91
2017-02-06T10:00:37.033Z,1014.79
2017-02-06T10:01:37.048Z,1014.79
2017-02-06T10:02:37.060Z,1014.82
2017-02-06T10:03:37.075Z,1014.82
2017-02-06T10:04:37.088Z,1014.8
2017-02-06T10:05:37.098Z,1014.86
2017-02-06T10:06:37.114Z,1014.84
2017-02-06T10:07:37.128Z,1014.93
2017-02-06T10:08:37.144Z,1014.97
2017-02-06T10:09:37.155Z,1014.98
2017-02-06T10:11:37.182Z,1014.97
2017-02-06T10:12:37.195Z,1014.97
2017-02-06T10:13:37.209Z,1014.96
2017-02-06T10:14:37.223Z,1014.97
2017-02-06T10:15:37.234Z,1014.97
2017-02-06T10:16:37.248Z,1014.95
2017-02-06T10:17:37.263Z,1014.97
2017-02-06T10:18:37.275Z,1014.94
2017-02-06T10:19:37.289Z,1014.96
2017-02-06T10:20:37.302Z,1014.95
2017-02-06T10:21:37.317Z,1015.03
2017-02-06T10:22:37.329Z,1014.99
2017-02-06T10:23:37.341Z,1015.03
2017-02-06T10:24:37.357Z,1015.07
2017-02-06T10:25:37.370Z,1015.17
2017-02-06T10:27:37.399Z,1015.09
2017-02-06T10:28:37.412Z,1015.11
2017-02-06T10:29:37.425Z,1015.13
2017-02-06T10:30:37.439Z,1015.14
2017-02-06T10:31:37.452Z,1015.15
2017-02-06T10:32:37.468Z,1015.16
2017-02-06T10:33:37.480Z,1015.13
2017-02-06T10:34:37.493Z,1015.14
2017-02-06T10:35:37.507Z,1015.13
2017-02-06T10:36:37.521Z,1015.16
2017-02-06T10:37:37.534Z,1015.11
2017-02-06T10:38:37.549Z,1015.12
2017-02-06T10:39:37.562Z,1015.11
2017-02-06T10:40:37.576Z,1015.17
2017-02-06T10:41:37.589Z,1015.19
2017-02-06T10:43:37.618Z,1015.25
2017-02-06T10:44:37.630Z,1015.3
2017-02-06T10:45:37.645Z,1015.27
2017-02-06T10:46:37.657Z,1015.32
2017-02-06T10:47:37.668Z,1015.32
2017-02-06T10:48:37.681Z,1015.35
2017-02-06T10:49:37.696Z,1015.4
2017-02-06T10:50:37.710Z,1015.4
2017-02-06T10:51:37.726Z,1015.41
2017-02-06T10:52:37.738Z,1015.42
2017-02-06T10:53:37.751Z,1015.37
2017-02-06T10:54:37.765Z,1015.33
2017-02-06T10:55:37.780Z,1015.39
2017-02-06T10:56:37.798Z,1015.44
2017-02-06T10:58:37.822Z,1015.45
2017-02-06T10:59:37.837Z,1015.47
2017-02-06T11:00:37.846Z,1015.31
2017-02-06T11:01:37.861Z,1015.3
2017-02-06T11:02:37.876Z,1015.32
2017-02-06T11:03:37.888Z,1015.28
2017-02-06T11:04:37.901Z,1015.31
2017-02-06T11:05:37.915Z,1015.32
2017-02-06T11:06:37.928Z,1015.34
2017-02-06T11:07:37.942Z,1015.33
2017-02-06T11:08:37.957Z,1015.38
2017-02-06T11:09:37.969Z,1015.42
2017-02-06T11:10:37.982Z,1015.39
2017-02-06T11:11:37.996Z,1015.4
2017-02-06T11:12:38.009Z,1015.43
2017-02-06T11:13:38.020Z,1015.44
2017-02-06T11:14:38.035Z,1015.46
2017-02-06T11:15:38.048Z,1015.51
2017-02-06T11:16:38.060Z,1015.47
2017-02-06T11:17:38.076Z,1015.44
2017-02-06T11:18:38.089Z,1015.48
2017-02-06T11:19:38.103Z,1015.45
2017-02-06T11:20:38.116Z,1015.41
2017-02-06T11:21:38.128Z,1015.37
2017-02-06T11:22:38.143Z,1015.36
2017-02-06T11:23:38.157Z,1015.4
2017-02-06T11:24:38.171Z,1015.43
2017-02-06T11:25:38.183Z,1015.43
2017-02-06T11:26:38.197Z,1015.41
2017-02-06T11:27:38.210Z,1015.42
2017-02-06T11:28:38.225Z,1015.37
2017-02-06T11:30:38.251Z,1015.39
2017-02-06T11:31:38.265Z,1015.37
2017-02-06T11:32:38.277Z,1015.37
2017-02-06T11:33:38.292Z,1015.42
2017-02-06T11:34:38.305Z,1015.32
2017-02-06T11:35:38.319Z,1015.32
2017-02-06T11:36:38.330Z,1015.36
2017-02-06T11:37:38.345Z,1015.35
2017-02-06T11:38:38.358Z,1015.27
2017-02-06T11:39:38.372Z,1015.27
2017-02-06T11:40:38.387Z,1015.34
2017-02-06T11:41:38.398Z,1015.34
2017-02-06T11:42:38.414Z,1015.38
2017-02-06T11:43:38.425Z,1015.36
2017-02-06T11:44:38.440Z,1015.37
2017-02-06T11:46:38.466Z,1015.36
2017-02-06T11:47:38.479Z,1015.35
2017-02-06T11:48:38.494Z,1015.42
2017-02-06T11:49:38.508Z,1015.39
2017-02-06T11:50:38.520Z,1015.43
2017-02-06T11:51:38.535Z,1015.48
2017-02-06T11:52:38.549Z,1015.43
2017-02-06T11:53:38.562Z,1015.4
2017-02-06T11:54:38.574Z,1015.39
2017-02-06T11:55:38.589Z,1015.36
2017-02-06T11:56:38.603Z,1015.4
2017-02-06T11:57:38.615Z,1015.43
2017-02-06T11:58:38.629Z,1015.49
2017-02-06T11:59:38.643Z,1015.44
2017-02-06T12:00:38.658Z,1015.44
2017-02-06T12:02:38.685Z,1015.42
2017-02-06T12:03:38.699Z,1015.39
2017-02-06T12:04:38.712Z,1015.37
2017-02-06T12:05:38.725Z,1015.42
2017-02-06T12:06:38.739Z,1015.39
2017-02-06T12:07:38.753Z,1015.43
2017-02-06T12:08:38.768Z,1015.35
2017-02-06T12:09:38.780Z,1015.36
2017-02-06T12:10:38.794Z,1015.34
2017-02-06T12:11:38.810Z,1015.37
2017-02-06T12:12:38.821Z,1015.37
2017-02-06T12:13:38.836Z,1015.43
2017-02-06T12:14:38.849Z,1015.5
2017-02-06T12:15:38.862Z,1015.49
2017-02-06T12:16:38.927Z,1015.48
2017-02-06T12:18:38.904Z,1015.51
2017-02-06T12:19:38.917Z,1015.5
2017-02-06T12:20:38.930Z,1015.52
2017-02-06T12:21:38.945Z,1015.54
2017-02-06T12:22:38.959Z,1015.6
2017-02-06T12:23:38.973Z,1015.64
2017-02-06T12:24:38.989Z,1015.67
2017-02-06T12:25:38.999Z,1015.63
2017-02-06T12:26:39.014Z,1015.65
2017-02-06T12:27:39.028Z,1015.74
2017-02-06T12:28:39.042Z,1015.74
2017-02-06T12:29:39.058Z,1015.74
2017-02-06T12:30:39.069Z,1015.78
2017-02-06T12:31:39.085Z,1015.82
2017-02-06T12:33:39.111Z,1015.77
2017-02-06T12:34:39.126Z,1015.78
2017-02-06T12:35:39.138Z,1015.72
2017-02-06T12:36:39.155Z,1015.77
2017-02-06T12:37:39.168Z,1015.74
2017-02-06T12:38:39.185Z,1015.73
2017-02-06T12:39:39.195Z,1015.73
2017-02-06T12:40:39.208Z,1015.75
2017-02-06T12:41:39.222Z,1015.85
2017-02-06T12:42:39.236Z,1015.75
2017-02-06T12:43:39.249Z,1015.75
2017-02-06T12:44:39.265Z,1015.75
2017-02-06T12:45:39.276Z,1015.79
2017-02-06T12:46:39.289Z,1015.76
2017-02-06T12:47:39.306Z,1015.72